Time;durP1;ratioP1;P1;durP2;ratioP2;P2;SDS_P1;SDS_P2;PMS_P1;PMS_P2;Temp;Humidity;BMP_temperature;BMP_pressure;BME280_temperature;BME280_humidity;BME280_pressure;Samples;Min_cycle;Max_cycle;Signal;HPM_P1;HPM_P2
2021/12/20 00:03:05;;;;;;;11.30;5.20;;;;;;;0.63;80.87;99519.23;207569;1315;139615;-65
2021/12/20 00:08:11;;;;;;;7.70;3.50;;;;;;;0.70;80.77;99515.30;207317;1315;140462;-65
2021/12/20 00:13:17;;;;;;;8.80;4.00;;;;;;;0.72;81.01;99511.19;207422;1316;141090;-65
2021/12/20 00:18:20;;;;;;;6.30;2.20;;;;;;;0.72;80.68;99510.73;207646;1315;140130;-65
2021/12/20 00:23:23;;;;;;;11.70;4.00;;;;;;;0.72;80.94;99512.41;207297;1315;139529;-65
2021/12/20 00:28:27;;;;;;;7.00;3.20;;;;;;;0.78;80.79;99513.70;207645;1316;140763;-65
2021/12/20 00:33:33;;;;;;;4.50;3.20;;;;;;;0.74;80.72;99513.15;207846;1316;140326;-65
2021/12/20 00:44:09;;;;;;;9.10;2.30;;;;;;;0.76;80.52;99519.48;208246;1315;140493;-65
2021/12/20 00:49:31;;;;;;;3.90;3.10;;;;;;;0.78;80.96;99520.66;208757;1317;141054;-64
2021/12/20 00:54:34;;;;;;;7.10;2.70;;;;;;;0.80;80.63;99523.63;207606;1318;138700;-65
2021/12/20 00:59:38;;;;;;;4.50;2.60;;;;;;;0.87;80.54;99528.19;207592;1318;139419;-67
2021/12/20 01:04:42;;;;;;;4.50;2.50;;;;;;;0.90;80.29;99523.48;209189;1318;139690;-68
2021/12/20 01:09:45;;;;;;;2.90;2.40;;;;;;;0.89;80.50;99523.41;209166;1316;138986;-68
2021/12/20 01:14:58;;;;;;;6.80;1.80;;;;;;;0.96;80.24;99517.10;208866;1315;139695;-68
2021/12/20 01:20:01;;;;;;;5.80;2.20;;;;;;;1.01;80.12;99518.80;209101;1316;139479;-68
2021/12/20 01:25:03;;;;;;;4.60;2.10;;;;;;;1.04;80.11;99518.91;208787;1316;139156;-67
2021/12/20 01:30:09;;;;;;;2.20;1.30;;;;;;;1.09;79.85;99513.35;208737;1317;139957;-68
2021/12/20 01:35:14;;;;;;;2.10;1.10;;;;;;;1.14;79.86;99511.24;207950;1315;143433;-67
2021/12/20 01:40:18;;;;;;;4.80;2.20;;;;;;;1.13;79.64;99510.70;208138;1315;141464;-68
2021/12/20 01:45:25;;;;;;;2.60;2.20;;;;;;;1.11;79.57;99518.77;207728;1316;142372;-68
2021/12/20 01:50:41;;;;;;;3.40;2.50;;;;;;;1.13;79.57;99508.16;207648;1316;140533;-67
2021/12/20 01:55:44;;;;;;;4.70;2.20;;;;;;;1.08;79.58;99512.48;207609;1316;140249;-67
2021/12/20 02:06:20;;;;;;;5.40;2.60;;;;;;;1.02;79.54;99517.84;207952;1316;139373;-65
2021/12/20 02:11:23;;;;;;;5.30;1.80;;;;;;;1.05;79.18;99508.43;207412;1316;138794;-67
2021/12/20 02:16:26;;;;;;;3.70;1.60;;;;;;;1.03;79.38;99503.91;207652;1316;138911;-66
2021/12/20 02:21:33;;;;;;;7.20;2.80;;;;;;;1.01;79.96;99509.26;207188;1316;210306;-67
2021/12/20 02:26:38;;;;;;;3.30;2.70;;;;;;;1.03;79.34;99516.89;207235;1316;139388;-67
2021/12/20 02:37:31;;;;;;;;;;;;;;;;;;;;;
2021/12/20 02:42:52;;;;;;;2.10;1.40;;;;;;;1.03;79.62;99526.73;207045;1317;140063;-66
2021/12/20 02:47:58;;;;;;;1.70;1.60;;;;;;;1.01;79.35;99529.14;208005;1316;142293;-66
2021/12/20 02:53:02;;;;;;;1.40;1.20;;;;;;;0.97;79.41;99519.94;207304;1316;138375;-67
2021/12/20 02:58:04;;;;;;;2.50;1.80;;;;;;;0.99;79.89;99527.25;209100;1316;139428;-66
2021/12/20 03:03:12;;;;;;;5.60;1.80;;;;;;;1.03;79.63;99536.70;208511;1316;138790;-66
2021/12/20 03:08:15;;;;;;;5.90;3.40;;;;;;;1.04;79.74;99539.55;209271;1316;139680;-68
2021/12/20 03:13:45;;;;;;;2.40;1.40;;;;;;;1.09;79.69;99545.57;208347;1316;234159;-67
2021/12/20 03:18:54;;;;;;;1.80;1.10;;;;;;;1.11;79.52;99551.95;207912;1316;138930;-67
2021/12/20 03:23:57;;;;;;;2.20;1.10;;;;;;;1.09;79.68;99549.61;209406;1319;140767;-68
2021/12/20 03:29:01;;;;;;;9.10;1.90;;;;;;;1.09;79.43;99549.33;208065;1317;138817;-68
2021/12/20 03:34:08;;;;;;;3.20;2.10;;;;;;;1.10;79.42;99552.27;208851;1316;141149;-68
2021/12/20 03:39:11;;;;;;;4.10;1.30;;;;;;;1.08;79.35;99547.22;208452;1316;139450;-68
2021/12/20 03:44:14;;;;;;;3.10;2.70;;;;;;;1.05;79.57;99557.13;208300;1316;139024;-68
2021/12/20 03:49:16;;;;;;;4.20;2.60;;;;;;;1.06;79.74;99564.50;207754;1316;139276;-67
2021/12/20 03:54:19;;;;;;;3.00;1.40;;;;;;;1.08;79.44;99562.16;207531;1319;140297;-65
2021/12/20 03:59:28;;;;;;;2.40;1.80;;;;;;;1.07;79.95;99557.40;207413;1317;140040;-66
2021/12/20 04:04:31;;;;;;;2.40;0.90;;;;;;;1.02;79.67;99556.04;207782;1315;139180;-65
2021/12/20 04:09:34;;;;;;;1.20;1.00;;;;;;;0.97;80.00;99549.77;208103;1316;139098;-65
2021/12/20 04:14:37;;;;;;;3.60;1.80;;;;;;;0.96;79.93;99552.50;207104;1316;139572;-65
2021/12/20 04:19:40;;;;;;;5.00;3.00;;;;;;;0.95;79.95;99553.25;207748;1315;139970;-66
2021/12/20 04:24:44;;;;;;;4.30;2.20;;;;;;;0.94;79.93;99553.20;207065;1316;138625;-65
2021/12/20 04:29:49;;;;;;;2.60;1.70;;;;;;;0.98;79.69;99557.46;207609;1315;140320;-65
2021/12/20 04:34:53;;;;;;;2.50;1.50;;;;;;;1.04;80.19;99559.16;207546;1316;139657;-65
2021/12/20 04:39:57;;;;;;;3.70;2.10;;;;;;;1.05;80.24;99562.56;207811;1316;138857;-66
2021/12/20 04:45:00;;;;;;;3.40;1.80;;;;;;;1.02;80.06;99563.88;207937;1316;138738;-65
2021/12/20 04:50:04;;;;;;;3.00;1.30;;;;;;;1.08;79.94;99568.42;207870;1315;139284;-64
2021/12/20 04:55:07;;;;;;;2.50;2.30;;;;;;;1.09;80.16;99567.63;208549;1316;140813;-65
2021/12/20 05:00:15;;;;;;;3.00;0.80;;;;;;;1.09;80.23;99571.38;207940;1316;139046;-67
2021/12/20 05:05:21;;;;;;;2.30;1.50;;;;;;;1.11;80.28;99576.14;207877;1315;140763;-67
2021/12/20 05:10:30;;;;;;;3.30;1.70;;;;;;;1.17;80.07;99570.27;207926;1316;139479;-67
2021/12/20 05:15:33;;;;;;;1.60;1.50;;;;;;;1.17;80.02;99562.67;207867;1321;139772;-68
2021/12/20 05:20:36;;;;;;;3.10;1.60;;;;;;;1.17;79.89;99565.85;207997;1321;139516;-68
2021/12/20 05:25:39;;;;;;;3.00;1.50;;;;;;;1.21;79.64;99569.02;208138;1319;140948;-68
2021/12/20 05:30:42;;;;;;;5.60;2.40;;;;;;;1.23;79.89;99567.71;209224;1316;139002;-68
2021/12/20 05:35:44;;;;;;;4.20;2.30;;;;;;;1.25;79.91;99570.64;209326;1316;139597;-71
2021/12/20 05:40:47;;;;;;;1.90;1.70;;;;;;;1.29;79.59;99575.23;209049;1316;139500;-69
2021/12/20 05:45:50;;;;;;;4.70;2.90;;;;;;;1.30;79.78;99584.88;209309;1316;140813;-68
2021/12/20 05:50:53;;;;;;;2.10;2.00;;;;;;;1.29;79.68;99594.47;209188;1316;139332;-69
2021/12/20 05:55:56;;;;;;;5.00;2.00;;;;;;;1.26;79.89;99608.88;208198;1316;537053;-69
2021/12/20 06:00:59;;;;;;;4.40;1.40;;;;;;;1.26;80.10;99610.24;208308;1316;139313;-69
2021/12/20 06:06:02;;;;;;;2.20;1.20;;;;;;;1.25;80.05;99607.23;208582;1315;141149;-69
2021/12/20 06:11:10;;;;;;;2.60;1.60;;;;;;;1.21;80.12;99608.74;208242;1313;139594;-68
2021/12/20 06:16:15;;;;;;;3.50;3.10;;;;;;;1.25;79.95;99609.84;208590;1315;140405;-68
2021/12/20 06:21:23;;;;;;;3.80;2.30;;;;;;;1.31;79.99;99618.09;207405;1316;139426;-66
2021/12/20 06:26:26;;;;;;;3.30;2.90;;;;;;;1.29;80.17;99617.45;207501;1315;140949;-67
2021/12/20 06:31:29;;;;;;;3.00;1.80;;;;;;;1.28;80.15;99625.23;207021;1315;138767;-67
2021/12/20 06:36:33;;;;;;;6.30;2.20;;;;;;;1.29;80.29;99636.48;207514;1316;139114;-66
2021/12/20 06:41:37;;;;;;;2.40;2.20;;;;;;;1.28;80.17;99641.16;207284;1316;139678;-65
2021/12/20 06:46:41;;;;;;;7.10;2.30;;;;;;;1.25;80.58;99640.27;208394;1315;140234;-66
2021/12/20 06:51:48;;;;;;;3.20;1.90;;;;;;;1.20;80.15;99645.67;207600;1315;149956;-68
2021/12/20 06:56:50;;;;;;;3.80;2.00;;;;;;;1.17;80.25;99649.50;208078;1315;140046;-67
2021/12/20 07:01:52;;;;;;;4.60;1.90;;;;;;;1.14;80.57;99651.95;207495;1315;141269;-69
2021/12/20 07:06:55;;;;;;;4.80;2.20;;;;;;;1.10;80.36;99661.98;206981;1316;140080;-67
2021/12/20 07:12:00;;;;;;;3.60;2.30;;;;;;;1.06;80.88;99672.32;207148;1316;140533;-69
2021/12/20 07:17:03;;;;;;;4.30;2.70;;;;;;;1.08;81.03;99677.69;207866;1315;140443;-67
2021/12/20 07:22:06;;;;;;;1.90;1.60;;;;;;;1.08;81.06;99675.42;207388;1316;140671;-67
2021/12/20 07:27:10;;;;;;;6.00;2.30;;;;;;;1.08;80.90;99678.77;207397;1316;140705;-67
2021/12/20 07:32:13;;;;;;;2.40;2.20;;;;;;;1.06;81.01;99681.34;207942;1316;139201;-67
2021/12/20 07:37:16;;;;;;;6.20;2.10;;;;;;;1.14;81.28;99685.52;209567;1315;140157;-67
2021/12/20 07:42:19;;;;;;;3.80;2.60;;;;;;;1.22;81.02;99690.59;209449;1317;140683;-69
2021/12/20 07:47:23;;;;;;;2.50;1.80;;;;;;;1.28;81.33;99692.17;209867;1317;141170;-69
2021/12/20 07:52:26;;;;;;;4.80;3.10;;;;;;;1.30;81.05;99700.81;209319;1315;140622;-69
2021/12/20 07:57:29;;;;;;;5.60;2.60;;;;;;;1.35;80.62;99704.06;209597;1318;139474;-69
2021/12/20 08:02:31;;;;;;;2.80;2.30;;;;;;;1.44;80.99;99707.16;209042;1314;141513;-69
2021/12/20 08:07:35;;;;;;;4.20;2.90;;;;;;;1.47;80.78;99714.79;208442;1315;140717;-68
2021/12/20 08:12:39;;;;;;;3.00;2.10;;;;;;;1.51;80.88;99711.08;208112;1315;139045;-68
2021/12/20 08:17:46;;;;;;;8.70;2.60;;;;;;;1.54;80.65;99713.05;208102;1315;139807;-68
2021/12/20 08:23:07;;;;;;;3.60;3.30;;;;;;;1.57;80.32;99718.92;208133;1315;140333;-68
2021/12/20 08:28:19;;;;;;;11.30;5.50;;;;;;;1.59;80.53;99725.47;208134;1315;140626;-69
2021/12/20 08:33:24;;;;;;;5.40;5.00;;;;;;;1.66;80.65;99732.23;207325;1315;140780;-67
2021/12/20 08:38:31;;;;;;;6.50;3.40;;;;;;;1.75;80.37;99727.02;207429;1316;139933;-67
2021/12/20 08:43:36;;;;;;;3.60;3.10;;;;;;;1.81;80.46;99738.67;208081;1314;141070;-67
2021/12/20 08:48:40;;;;;;;4.80;3.80;;;;;;;1.80;80.38;99743.91;207338;1316;150203;-67
2021/12/20 08:53:43;;;;;;;5.10;3.40;;;;;;;1.79;80.35;99750.05;207493;1315;139806;-68
2021/12/20 08:58:48;;;;;;;2.40;2.20;;;;;;;1.87;80.04;99759.60;207741;1315;140928;-67
2021/12/20 09:03:57;;;;;;;4.10;2.40;;;;;;;1.94;79.82;99762.02;207485;1314;140313;-66
2021/12/20 09:09:12;;;;;;;7.30;2.70;;;;;;;1.99;79.97;99761.99;207772;1315;141737;-67
2021/12/20 09:14:25;;;;;;;5.60;2.90;;;;;;;2.01;79.98;99757.50;206809;1315;138615;-67
2021/12/20 09:19:39;;;;;;;4.00;2.90;;;;;;;2.04;79.79;99765.23;208340;1315;139102;-67
2021/12/20 09:24:44;;;;;;;4.10;2.90;;;;;;;2.06;79.87;99763.88;209353;1315;140488;-66
2021/12/20 09:29:48;;;;;;;6.00;2.50;;;;;;;1.96;79.43;99769.14;207966;1316;140563;-66
2021/12/20 09:34:52;;;;;;;6.10;2.70;;;;;;;1.91;79.63;99772.73;208912;1315;139929;-63
2021/12/20 09:39:59;;;;;;;3.30;2.80;;;;;;;1.92;79.71;99765.79;207408;1316;140969;-62
2021/12/20 09:45:04;;;;;;;3.90;2.60;;;;;;;1.89;79.65;99768.94;208017;1317;140949;-64
2021/12/20 09:50:08;;;;;;;3.30;3.00;;;;;;;1.85;79.34;99780.10;208689;1314;140205;-64
2021/12/20 09:55:16;;;;;;;2.50;1.90;;;;;;;1.91;79.62;99779.93;209218;1314;140666;-67
2021/12/20 10:00:21;;;;;;;2.60;2.20;;;;;;;1.97;79.20;99778.83;208607;1317;139530;-67
2021/12/20 10:05:36;;;;;;;3.70;2.40;;;;;;;1.97;79.15;99782.18;208751;1315;139801;-67
2021/12/20 10:10:44;;;;;;;4.30;3.10;;;;;;;1.97;79.03;99785.66;208310;1315;139316;-66
2021/12/20 10:15:47;;;;;;;6.00;3.10;;;;;;;1.98;79.11;99786.13;208163;1315;140005;-66
2021/12/20 10:20:56;;;;;;;3.90;2.40;;;;;;;1.96;79.11;99790.80;207030;1316;139086;-64
2021/12/20 10:26:20;;;;;;;5.30;3.40;;;;;;;1.94;79.21;99793.94;207956;1315;140351;-64
2021/12/20 10:31:25;;;;;;;3.30;2.40;;;;;;;1.95;79.04;99790.55;207830;1315;140153;-67
2021/12/20 10:36:32;;;;;;;4.70;3.90;;;;;;;1.89;79.34;99788.91;207422;1315;139911;-66
2021/12/20 10:41:39;;;;;;;3.00;2.10;;;;;;;1.86;79.07;99783.33;208042;1316;139959;-65
2021/12/20 10:46:49;;;;;;;5.30;2.60;;;;;;;1.87;78.94;99781.46;207238;1315;140455;-65
2021/12/20 10:51:54;;;;;;;2.80;2.30;;;;;;;1.92;78.83;99772.80;207123;1315;139128;-65
2021/12/20 10:57:05;;;;;;;3.80;2.40;;;;;;;2.01;78.85;99779.33;207994;1315;139432;-65
2021/12/20 11:03:15;;;;;;;4.60;3.10;;;;;;;2.05;78.73;99781.14;207024;1315;140531;-66
2021/12/20 11:13:16;;;;;;;7.70;2.10;;;;;;;2.01;78.33;99785.11;208076;1315;139990;-67
2021/12/20 11:18:20;;;;;;;5.70;3.20;;;;;;;1.99;78.38;99790.63;207270;1316;141311;-65
2021/12/20 11:23:27;;;;;;;3.90;1.90;;;;;;;1.91;78.13;99794.48;207369;1313;141172;-67
2021/12/20 11:28:30;;;;;;;4.10;1.60;;;;;;;1.88;78.02;99797.14;207841;1315;139705;-66
2021/12/20 11:33:32;;;;;;;1.80;1.60;;;;;;;1.88;77.90;99802.04;207586;1316;141834;-65
2021/12/20 11:38:35;;;;;;;5.00;2.50;;;;;;;1.88;77.87;99806.13;207923;1316;141022;-65
2021/12/20 11:43:39;;;;;;;5.10;2.80;;;;;;;1.89;77.86;99813.30;207073;1316;142771;-66
2021/12/20 11:48:42;;;;;;;3.70;2.50;;;;;;;1.85;77.52;99814.42;209338;1317;144157;-67
2021/12/20 11:53:46;;;;;;;2.40;2.00;;;;;;;1.81;77.34;99820.09;209864;1315;139684;-70
2021/12/20 11:58:48;;;;;;;5.40;2.30;;;;;;;1.85;77.51;99819.87;209609;1315;140692;-70
2021/12/20 12:03:54;;;;;;;2.00;1.50;;;;;;;1.95;77.22;99820.80;208478;1313;139372;-69
2021/12/20 12:09:02;;;;;;;2.80;1.70;;;;;;;1.94;76.79;99823.61;208242;1318;139484;-67
2021/12/20 12:14:33;;;;;;;5.80;2.80;;;;;;;1.92;77.07;99829.38;207270;1318;139742;-67
2021/12/20 12:19:38;;;;;;;4.80;3.00;;;;;;;1.88;76.32;99836.70;208585;1316;139705;-68
2021/12/20 12:24:47;;;;;;;4.80;2.30;;;;;;;1.84;76.67;99839.26;207941;1315;139837;-65
2021/12/20 12:30:16;;;;;;;5.00;1.60;;;;;;;1.89;76.19;99837.65;208063;1315;140049;-67
2021/12/20 12:35:45;;;;;;;2.70;2.20;;;;;;;1.91;76.23;99841.94;208096;1315;140123;-67
2021/12/20 12:40:52;;;;;;;2.90;1.80;;;;;;;1.91;76.05;99841.60;207443;1315;140976;-64
2021/12/20 12:46:00;;;;;;;3.20;1.90;;;;;;;1.91;75.84;99846.50;207349;1315;138829;-66
2021/12/20 12:51:06;;;;;;;3.70;2.90;;;;;;;1.89;75.47;99854.66;206830;1315;139594;-66
2021/12/20 12:56:24;;;;;;;4.70;2.30;;;;;;;1.91;75.94;99855.35;207633;1315;139887;-65
2021/12/20 13:01:27;;;;;;;3.40;2.30;;;;;;;1.90;75.87;99859.05;206990;1315;138801;-65
2021/12/20 13:06:31;;;;;;;5.60;2.30;;;;;;;1.81;75.90;99860.48;207606;1316;140026;-63
2021/12/20 13:11:34;;;;;;;4.90;2.90;;;;;;;1.80;75.85;99867.66;207825;1315;139984;-66
2021/12/20 13:16:51;;;;;;;4.20;1.80;;;;;;;1.79;75.61;99875.85;206752;1315;139421;-66
2021/12/20 13:22:03;;;;;;;3.50;1.90;;;;;;;1.75;75.80;99884.19;206741;1316;141224;-64
2021/12/20 13:27:08;;;;;;;4.60;2.20;;;;;;;1.72;75.71;99885.05;207138;1316;150806;-64
2021/12/20 13:32:13;;;;;;;246.30;96.80;;;;;;;1.72;75.44;99883.45;208057;1315;139962;-66
2021/12/20 13:37:20;;;;;;;8.30;3.70;;;;;;;1.72;75.34;99891.30;206663;1315;140460;-66
2021/12/20 13:42:24;;;;;;;4.50;1.90;;;;;;;1.69;75.46;99896.56;208698;1315;139389;-64
2021/12/20 13:47:29;;;;;;;6.40;3.30;;;;;;;1.68;75.44;99904.29;208622;1316;139537;-66
2021/12/20 13:52:32;;;;;;;12.70;3.10;;;;;;;1.65;75.55;99904.49;208702;1315;621508;-66
2021/12/20 13:57:36;;;;;;;5.30;3.30;;;;;;;1.59;75.57;99919.38;208878;1316;140045;-66
2021/12/20 14:02:42;;;;;;;9.20;2.60;;;;;;;1.41;75.94;99923.74;209254;1315;141137;-66
2021/12/20 14:07:58;;;;;;;4.60;3.20;;;;;;;1.27;76.42;99929.56;209074;1314;140008;-70
2021/12/20 14:13:05;;;;;;;4.80;3.20;;;;;;;1.19;76.85;99935.77;209158;1316;139186;-65
2021/12/20 14:18:20;;;;;;;3.60;2.70;;;;;;;1.15;77.27;99943.11;207896;1315;139523;-69
2021/12/20 14:23:24;;;;;;;9.20;3.30;;;;;;;1.10;77.26;99957.17;208020;1315;139491;-66
2021/12/20 14:28:29;;;;;;;2.70;2.30;;;;;;;1.05;76.84;99959.45;206795;1315;141388;-65
2021/12/20 14:33:40;;;;;;;6.70;2.30;;;;;;;0.94;76.67;99964.58;208800;1318;210758;-65
2021/12/20 14:38:55;;;;;;;3.50;1.80;;;;;;;0.84;76.69;99978.55;208064;1315;139384;-67
2021/12/20 14:44:02;;;;;;;9.10;3.70;;;;;;;0.83;76.54;99972.88;208197;1315;139949;-67
2021/12/20 14:55:11;;;;;;;4.80;2.70;;;;;;;0.31;76.51;100025.33;207927;1315;139912;-66
2021/12/20 15:00:21;;;;;;;2.90;2.50;;;;;;;-0.05;76.80;100048.96;207151;1315;142963;-67
2021/12/20 15:05:26;;;;;;;4.50;2.80;;;;;;;-0.31;77.17;100058.91;207109;1318;142254;-65
2021/12/20 15:10:29;;;;;;;4.70;3.30;;;;;;;-0.50;77.30;100054.33;206967;1318;140490;-65
2021/12/20 15:15:32;;;;;;;4.40;3.50;;;;;;;-0.66;77.92;100052.98;207627;1317;141501;-65
2021/12/20 15:20:34;;;;;;;5.20;2.40;;;;;;;-0.70;78.15;100058.81;206592;1318;142234;-65
2021/12/20 15:25:39;;;;;;;3.40;3.10;;;;;;;-0.78;77.96;100064.48;207088;1319;141381;-67
2021/12/20 15:30:45;;;;;;;5.50;3.20;;;;;;;-0.90;78.24;100066.98;206746;1315;140087;-65
2021/12/20 15:35:49;;;;;;;3.20;2.20;;;;;;;-0.95;78.12;100071.60;207587;1319;140523;-65
2021/12/20 15:40:53;;;;;;;3.20;2.50;;;;;;;-0.99;78.04;100075.69;207665;1318;139463;-66
2021/12/20 15:45:58;;;;;;;2.40;1.60;;;;;;;-1.04;78.19;100081.73;207650;1321;139062;-72
2021/12/20 15:51:01;;;;;;;1.60;1.50;;;;;;;-1.00;78.12;100095.92;207514;1316;141153;-65
2021/12/20 15:56:05;;;;;;;2.90;1.80;;;;;;;-0.92;77.99;100101.23;209175;1316;140195;-66
2021/12/20 16:01:08;;;;;;;3.80;1.70;;;;;;;-0.91;77.87;100116.88;208090;1318;140496;-66
2021/12/20 16:06:11;;;;;;;5.00;2.00;;;;;;;-0.87;78.14;100124.70;206990;1318;142128;-66
2021/12/20 16:11:14;;;;;;;2.90;2.10;;;;;;;-0.82;77.89;100126.89;206870;1318;140988;-67
2021/12/20 16:16:17;;;;;;;4.40;3.10;;;;;;;-0.80;77.72;100127.48;206757;1317;141020;-66
2021/12/20 16:21:40;;;;;;;3.20;2.60;;;;;;;-0.82;78.08;100139.59;208194;1318;139872;-66
2021/12/20 16:26:43;;;;;;;6.30;3.50;;;;;;;-0.86;77.93;100147.17;209075;1316;140367;-66
2021/12/20 16:31:46;;;;;;;8.80;3.20;;;;;;;-0.86;77.78;100147.51;207769;1316;140520;-66
2021/12/20 16:36:50;;;;;;;4.90;3.50;;;;;;;-0.79;77.88;100149.79;207054;1318;140033;-65
2021/12/20 16:41:53;;;;;;;53.00;22.20;;;;;;;-0.78;77.82;100159.78;207365;1316;142090;-67
2021/12/20 16:47:08;;;;;;;8.80;6.60;;;;;;;-0.82;77.84;100162.33;207601;1318;140810;-66
2021/12/20 16:52:12;;;;;;;4.70;2.40;;;;;;;-0.81;77.94;100164.83;206477;1320;139209;-67
2021/12/20 16:57:17;;;;;;;4.60;3.90;;;;;;;-0.79;77.86;100165.46;207045;1319;139635;-66
2021/12/20 17:02:25;;;;;;;5.60;4.60;;;;;;;-0.79;77.67;100174.33;207197;1318;139826;-65
2021/12/20 17:07:28;;;;;;;4.90;3.10;;;;;;;-0.86;78.02;100178.88;207168;1319;140216;-66
2021/12/20 17:12:31;;;;;;;4.70;3.00;;;;;;;-0.86;77.88;100178.75;207372;1316;140462;-67
2021/12/20 17:17:34;;;;;;;5.10;3.00;;;;;;;-0.84;77.72;100186.04;207383;1318;139946;-68
2021/12/20 17:22:41;;;;;;;6.20;4.20;;;;;;;-0.83;77.77;100186.11;207173;1318;139566;-66
2021/12/20 17:27:45;;;;;;;7.00;4.20;;;;;;;-0.76;78.19;100195.40;206702;1318;139104;-65
2021/12/20 17:32:47;;;;;;;5.50;5.00;;;;;;;-0.71;78.25;100195.05;207047;1318;139455;-66
2021/12/20 17:37:51;;;;;;;2.70;2.50;;;;;;;-0.69;78.43;100207.27;206617;1318;139499;-69
2021/12/20 17:43:06;;;;;;;7.60;4.80;;;;;;;-0.69;78.41;100209.73;206940;1318;139841;-68
2021/12/20 17:48:09;;;;;;;11.00;4.80;;;;;;;-0.63;78.55;100214.10;206835;1318;141078;-66
2021/12/20 17:53:13;;;;;;;7.60;4.90;;;;;;;-0.58;78.64;100216.91;207374;1318;141366;-66
2021/12/20 17:58:19;;;;;;;13.20;5.60;;;;;;;-0.59;78.59;100217.77;208033;1318;231632;-65
2021/12/20 18:03:21;;;;;;;7.20;3.80;;;;;;;-0.61;78.84;100226.02;208564;1318;143027;-65
2021/12/20 18:08:30;;;;;;;8.10;4.90;;;;;;;-0.59;78.69;100229.84;208402;1316;139424;-67
2021/12/20 18:13:32;;;;;;;11.20;3.90;;;;;;;-0.52;78.46;100238.67;208717;1318;141906;-67
2021/12/20 18:18:38;;;;;;;6.90;3.60;;;;;;;-0.50;78.54;100245.82;209344;1317;140002;-65
2021/12/20 18:23:42;;;;;;;8.20;4.10;;;;;;;-0.54;78.35;100247.78;208883;1317;140186;-67
2021/12/20 18:28:47;;;;;;;7.90;4.90;;;;;;;-0.52;78.24;100251.33;209155;1316;140421;-67
2021/12/20 18:33:51;;;;;;;10.70;4.60;;;;;;;-0.54;78.27;100251.80;209189;1316;140407;-67
2021/12/20 18:38:59;;;;;;;5.00;3.70;;;;;;;-0.56;78.18;100250.99;208498;1319;139940;-68
2021/12/20 18:44:07;;;;;;;8.30;2.90;;;;;;;-0.65;78.11;100261.31;207760;1316;142060;-65
2021/12/20 18:49:11;;;;;;;9.10;4.10;;;;;;;-0.80;77.96;100263.67;208424;1319;163250;-65
2021/12/20 18:54:16;;;;;;;7.60;3.70;;;;;;;-0.87;77.95;100270.58;208164;1317;140987;-64
2021/12/20 18:59:20;;;;;;;4.90;3.40;;;;;;;-0.88;78.33;100279.91;206871;1320;140340;-65
2021/12/20 19:04:23;;;;;;;6.60;3.40;;;;;;;-0.90;78.21;100284.02;208619;1319;140885;-66
2021/12/20 19:09:30;;;;;;;4.30;3.80;;;;;;;-0.96;78.48;100283.05;207008;1321;139168;-64
2021/12/20 19:14:34;;;;;;;5.30;3.70;;;;;;;-0.93;78.55;100281.85;206970;1318;139669;-65
2021/12/20 19:19:39;;;;;;;5.80;3.40;;;;;;;-0.95;78.69;100289.70;207420;1319;139581;-65
2021/12/20 19:24:43;;;;;;;6.10;3.80;;;;;;;-0.99;78.88;100301.84;207270;1318;151057;-65
2021/12/20 19:29:53;;;;;;;9.70;4.60;;;;;;;-1.00;79.01;100305.41;207415;1319;139262;-65
2021/12/20 19:34:59;;;;;;;6.90;3.70;;;;;;;-1.03;79.23;100304.73;207050;1319;139142;-65
2021/12/20 19:40:06;;;;;;;6.30;2.90;;;;;;;-1.02;79.15;100310.77;207518;1318;140006;-65
2021/12/20 19:45:35;;;;;;;4.40;3.50;;;;;;;-1.00;78.98;100316.18;207440;1318;141286;-65
2021/12/20 19:50:40;;;;;;;4.60;3.20;;;;;;;-1.04;79.10;100318.59;207728;1318;139632;-65
2021/12/20 19:55:46;;;;;;;8.70;4.10;;;;;;;-1.05;79.16;100320.27;208071;1319;139384;-65
2021/12/20 20:01:25;;;;;;;6.30;3.80;;;;;;;-1.07;79.15;100321.52;208321;1316;139651;-66
2021/12/20 20:06:28;;;;;;;6.00;4.70;;;;;;;-1.05;79.06;100327.30;208737;1320;139675;-66
2021/12/20 20:11:39;;;;;;;7.80;4.50;;;;;;;-1.04;78.87;100335.73;207582;1320;140670;-66
2021/12/20 20:16:42;;;;;;;8.90;4.90;;;;;;;-1.12;78.58;100338.73;207875;1316;140969;-66
2021/12/20 20:21:44;;;;;;;7.80;4.40;;;;;;;-1.24;78.67;100343.36;208443;1316;140434;-66
2021/12/20 20:26:47;;;;;;;8.30;4.40;;;;;;;-1.31;78.61;100343.58;207375;1317;154472;-65
2021/12/20 20:31:49;;;;;;;11.60;3.90;;;;;;;-1.35;78.76;100345.17;209226;1319;141122;-66
2021/12/20 20:36:52;;;;;;;9.60;6.50;;;;;;;-1.35;78.55;100344.61;208563;1319;140873;-66
2021/12/20 20:41:55;;;;;;;10.20;5.10;;;;;;;-1.38;78.39;100343.30;208417;1319;140131;-65
2021/12/20 20:46:58;;;;;;;11.10;5.50;;;;;;;-1.41;78.51;100344.99;207962;1316;140221;-65
2021/12/20 20:52:01;;;;;;;11.60;5.40;;;;;;;-1.44;78.32;100344.71;206849;1318;139409;-65
2021/12/20 20:57:04;;;;;;;6.70;4.80;;;;;;;-1.49;78.34;100344.15;208381;1316;140245;-66
2021/12/20 21:02:08;;;;;;;10.90;4.40;;;;;;;-1.50;78.50;100340.44;206859;1317;138728;-66
2021/12/20 21:07:11;;;;;;;17.20;8.10;;;;;;;-1.52;78.32;100344.47;208527;1316;139867;-66
2021/12/20 21:12:18;;;;;;;13.50;5.30;;;;;;;-1.49;78.18;100345.03;207921;1316;141431;-66
2021/12/20 21:17:20;;;;;;;13.50;7.10;;;;;;;-1.47;78.03;100348.83;207186;1317;221675;-65
2021/12/20 21:22:22;;;;;;;15.10;7.00;;;;;;;-1.45;78.17;100353.59;207749;1313;140405;-66
2021/12/20 21:27:24;;;;;;;11.40;5.70;;;;;;;-1.43;78.17;100355.29;207719;1317;140638;-66
2021/12/20 21:32:26;;;;;;;9.20;4.80;;;;;;;-1.45;77.98;100352.52;206788;1316;139336;-65
2021/12/20 21:37:29;;;;;;;10.40;6.60;;;;;;;-1.41;77.93;100355.48;207510;1316;140147;-65
2021/12/20 21:42:32;;;;;;;10.60;6.00;;;;;;;-1.37;77.88;100348.09;208299;1316;139755;-66
2021/12/20 21:47:35;;;;;;;12.20;6.00;;;;;;;-1.38;77.93;100344.15;207952;1316;140573;-66
2021/12/20 21:52:38;;;;;;;11.30;8.30;;;;;;;-1.41;77.80;100344.66;206682;1316;703482;-65
2021/12/20 21:57:40;;;;;;;17.40;9.70;;;;;;;-1.44;77.83;100349.65;206931;1317;142465;-66
2021/12/20 22:02:43;;;;;;;16.70;7.50;;;;;;;-1.45;77.97;100357.24;207624;1319;140622;-65
2021/12/20 22:07:47;;;;;;;14.50;8.40;;;;;;;-1.48;77.80;100358.02;207057;1317;140697;-65
2021/12/20 22:12:49;;;;;;;20.70;9.60;;;;;;;-1.47;77.76;100355.35;208373;1316;142694;-65
2021/12/20 22:17:52;;;;;;;18.20;7.70;;;;;;;-1.47;77.77;100359.84;206956;1318;140610;-65
2021/12/20 22:22:57;;;;;;;20.60;7.80;;;;;;;-1.50;77.83;100360.61;207620;1317;141581;-65
2021/12/20 22:27:59;;;;;;;12.60;6.80;;;;;;;-1.54;77.84;100360.18;208375;1316;139528;-66
2021/12/20 22:33:02;;;;;;;16.50;10.90;;;;;;;-1.56;77.68;100363.84;208676;1318;139703;-66
2021/12/20 22:38:04;;;;;;;19.10;9.60;;;;;;;-1.53;77.49;100366.13;207538;1316;142007;-67
2021/12/20 22:43:07;;;;;;;21.70;10.20;;;;;;;-1.52;77.52;100373.59;208198;1318;140992;-66
2021/12/20 22:48:10;;;;;;;17.70;9.60;;;;;;;-1.51;77.49;100378.20;209280;1318;141444;-67
2021/12/20 22:53:13;;;;;;;20.60;10.20;;;;;;;-1.50;77.76;100378.42;208954;1317;140126;-66
2021/12/20 22:58:16;;;;;;;16.20;6.70;;;;;;;-1.49;77.57;100378.55;207664;1318;140241;-66
2021/12/20 23:03:19;;;;;;;11.60;6.50;;;;;;;-1.45;77.45;100381.30;208192;1318;140004;-66
2021/12/20 23:08:22;;;;;;;11.30;6.20;;;;;;;-1.41;77.64;100383.50;208115;1316;140585;-67
2021/12/20 23:13:29;;;;;;;10.30;4.50;;;;;;;-1.36;77.72;100383.90;207566;1318;141190;-66
2021/12/20 23:18:37;;;;;;;12.40;5.60;;;;;;;-1.38;77.94;100385.48;207164;1318;139259;-66
2021/12/20 23:23:40;;;;;;;10.00;3.90;;;;;;;-1.39;77.84;100387.67;208489;1317;140735;-66
2021/12/20 23:28:43;;;;;;;13.80;5.30;;;;;;;-1.35;78.01;100388.41;208093;1318;140143;-65
2021/12/20 23:33:48;;;;;;;9.80;5.10;;;;;;;-1.32;77.93;100387.80;206843;1318;140127;-65
2021/12/20 23:39:00;;;;;;;10.60;4.30;;;;;;;-1.34;78.15;100389.65;207983;1318;140268;-65
2021/12/20 23:44:13;;;;;;;10.30;4.30;;;;;;;-1.35;78.11;100389.21;207930;1318;141691;-67
2021/12/20 23:49:17;;;;;;;6.80;4.10;;;;;;;-1.42;77.90;100388.50;208180;1317;140154;-65
2021/12/20 23:54:20;;;;;;;10.00;5.80;;;;;;;-1.50;77.98;100393.23;207423;1316;139224;-65
2021/12/20 23:59:24;;;;;;;10.70;5.50;;;;;;;-1.51;78.03;100394.02;207548;1317;140499;-66
